Karnak, Illinois
Current Conditions -  °F | °C
As of 12:15 PM on Friday 19 Dec 2014 (Local Time) from KM30 Reporting Station
Scattered Clouds Scattered Clouds  
Wind Chill: 35°   Ceiling: Unl
Heat Index: 38°   Visibility: 10mi
Dew Point: 31°   Wind: 5mph
Humidity: 75%   Direction: 60°ENE
Pressure: 30.27"   Gusts: NA
Location:  37.29°N, 88.98°W
Report Text: KM30 191815Z AUTO 06004KT 10SM SCT041 04/00 A3027 RMK AO2 T00361005
Loading
Personal Weather Stations






























Interactive Weather Map New forecast layout! Learn more

10-Day Weather Forecast

Advertisements
Track Severe Weather on mobile